sensor_id;sensor_type;location;lat;lon;timestamp;temperature;humidity
2565;DHT22;1292;48.020;7.822;2023-02-28T06:47:17;-0.20;99.90
2565;DHT22;1292;48.020;7.822;2023-02-28T06:49:44;-0.20;99.90
2565;DHT22;1292;48.020;7.822;2023-02-28T06:52:11;-0.20;99.90
2565;DHT22;1292;48.020;7.822;2023-02-28T06:54:37;-0.20;99.90
2565;DHT22;1292;48.020;7.822;2023-02-28T06:57:04;-0.10;99.90
2565;DHT22;1292;48.020;7.822;2023-02-28T06:59:31;-0.20;99.90
2565;DHT22;1292;48.020;7.822;2023-02-28T07:01:58;-0.10;99.90
2565;DHT22;1292;48.020;7.822;2023-02-28T07:04:27;-0.10;99.90
2565;DHT22;1292;48.020;7.822;2023-02-28T07:06:54;-0.10;99.90
2565;DHT22;1292;48.020;7.822;2023-02-28T07:09:22;-0.10;99.90
2565;DHT22;1292;48.020;7.822;2023-02-28T07:11:49;0.00;99.90
2565;DHT22;1292;48.020;7.822;2023-02-28T07:14:16;0.00;99.90
2565;DHT22;1292;48.020;7.822;2023-02-28T07:16:42;0.10;99.90
2565;DHT22;1292;48.020;7.822;2023-02-28T07:19:10;0.10;99.90
2565;DHT22;1292;48.020;7.822;2023-02-28T07:21:39;0.10;99.90
2565;DHT22;1292;48.020;7.822;2023-02-28T07:24:06;0.20;99.90
2565;DHT22;1292;48.020;7.822;2023-02-28T07:26:33;0.10;99.90
2565;DHT22;1292;48.020;7.822;2023-02-28T07:29:00;0.20;99.90
2565;DHT22;1292;48.020;7.822;2023-02-28T07:31:27;0.20;99.90
2565;DHT22;1292;48.020;7.822;2023-02-28T07:33:54;0.20;99.90
2565;DHT22;1292;48.020;7.822;2023-02-28T07:36:21;0.30;99.90
2565;DHT22;1292;48.020;7.822;2023-02-28T07:38:49;0.40;99.90
2565;DHT22;1292;48.020;7.822;2023-02-28T07:41:17;0.40;99.90
2565;DHT22;1292;48.020;7.822;2023-02-28T07:43:45;0.40;99.90
2565;DHT22;1292;48.020;7.822;2023-02-28T07:46:13;0.40;99.90
2565;DHT22;1292;48.020;7.822;2023-02-28T07:48:41;0.50;99.90
2565;DHT22;1292;48.020;7.822;2023-02-28T07:51:08;0.50;99.90
2565;DHT22;1292;48.020;7.822;2023-02-28T07:53:35;0.40;99.90
2565;DHT22;1292;48.020;7.822;2023-02-28T07:56:04;0.40;99.90
2565;DHT22;1292;48.020;7.822;2023-02-28T07:58:31;0.50;99.90
2565;DHT22;1292;48.020;7.822;2023-02-28T08:01:04;0.60;99.90
2565;DHT22;1292;48.020;7.822;2023-02-28T08:03:31;0.60;99.90
2565;DHT22;1292;48.020;7.822;2023-02-28T08:05:58;0.70;99.90
2565;DHT22;1292;48.020;7.822;2023-02-28T08:08:25;0.70;99.90
2565;DHT22;1292;48.020;7.822;2023-02-28T08:10:54;0.70;99.90
2565;DHT22;1292;48.020;7.822;2023-02-28T08:13:22;0.70;99.90
2565;DHT22;1292;48.020;7.822;2023-02-28T08:15:50;0.80;99.90
2565;DHT22;1292;48.020;7.822;2023-02-28T08:18:16;0.80;99.90
2565;DHT22;1292;48.020;7.822;2023-02-28T08:20:43;1.00;99.90
2565;DHT22;1292;48.020;7.822;2023-02-28T08:23:10;0.90;99.90
2565;DHT22;1292;48.020;7.822;2023-02-28T08:25:37;0.90;99.90
2565;DHT22;1292;48.020;7.822;2023-02-28T08:28:04;1.00;99.90
2565;DHT22;1292;48.020;7.822;2023-02-28T08:30:32;1.00;99.90
2565;DHT22;1292;48.020;7.822;2023-02-28T08:32:59;1.00;99.90
2565;DHT22;1292;48.020;7.822;2023-02-28T08:35:27;1.00;99.90
2565;DHT22;1292;48.020;7.822;2023-02-28T08:37:54;1.10;99.90
2565;DHT22;1292;48.020;7.822;2023-02-28T08:40:20;1.10;99.90
2565;DHT22;1292;48.020;7.822;2023-02-28T08:42:47;1.20;99.90
2565;DHT22;1292;48.020;7.822;2023-02-28T08:45:15;1.20;99.90
2565;DHT22;1292;48.020;7.822;2023-02-28T08:47:43;1.20;99.90
2565;DHT22;1292;48.020;7.822;2023-02-28T08:50:10;1.30;99.90
2565;DHT22;1292;48.020;7.822;2023-02-28T08:52:42;1.40;99.90
2565;DHT22;1292;48.020;7.822;2023-02-28T08:55:09;1.40;99.90
2565;DHT22;1292;48.020;7.822;2023-02-28T08:57:36;1.50;99.90
2565;DHT22;1292;48.020;7.822;2023-02-28T09:00:04;1.50;99.90
2565;DHT22;1292;48.020;7.822;2023-02-28T09:02:31;1.60;99.90
2565;DHT22;1292;48.020;7.822;2023-02-28T09:04:59;1.60;99.90
2565;DHT22;1292;48.020;7.822;2023-02-28T09:07:25;1.70;99.90
2565;DHT22;1292;48.020;7.822;2023-02-28T09:09:52;1.70;99.90
2565;DHT22;1292;48.020;7.822;2023-02-28T09:12:24;1.60;99.90
2565;DHT22;1292;48.020;7.822;2023-02-28T09:14:51;1.70;99.90
2565;DHT22;1292;48.020;7.822;2023-02-28T09:17:19;1.80;99.90
2565;DHT22;1292;48.020;7.822;2023-02-28T09:19:47;1.90;99.90
2565;DHT22;1292;48.020;7.822;2023-02-28T09:22:16;2.00;99.90
2565;DHT22;1292;48.020;7.822;2023-02-28T09:24:43;2.00;99.90
2565;DHT22;1292;48.020;7.822;2023-02-28T09:27:10;2.20;99.90
2565;DHT22;1292;48.020;7.822;2023-02-28T09:29:37;2.30;99.90
2565;DHT22;1292;48.020;7.822;2023-02-28T09:32:04;2.40;99.90
2565;DHT22;1292;48.020;7.822;2023-02-28T09:34:32;2.50;99.90
2565;DHT22;1292;48.020;7.822;2023-02-28T09:36:58;2.60;99.90
2565;DHT22;1292;48.020;7.822;2023-02-28T09:39:27;2.70;99.90
2565;DHT22;1292;48.020;7.822;2023-02-28T09:41:55;2.80;99.90
2565;DHT22;1292;48.020;7.822;2023-02-28T09:44:27;2.90;99.90
2565;DHT22;1292;48.020;7.822;2023-02-28T09:46:57;3.10;99.90
2565;DHT22;1292;48.020;7.822;2023-02-28T09:49:31;3.20;99.90
2565;DHT22;1292;48.020;7.822;2023-02-28T09:52:02;3.40;99.90
2565;DHT22;1292;48.020;7.822;2023-02-28T09:54:32;3.40;99.90
2565;DHT22;1292;48.020;7.822;2023-02-28T09:57:04;3.50;99.90
2565;DHT22;1292;48.020;7.822;2023-02-28T09:59:42;3.60;99.90
2565;DHT22;1292;48.020;7.822;2023-02-28T10:02:34;3.80;99.90
2565;DHT22;1292;48.020;7.822;2023-02-28T10:05:09;3.70;99.90
2565;DHT22;1292;48.020;7.822;2023-02-28T10:07:53;3.70;99.90
2565;DHT22;1292;48.020;7.822;2023-02-28T10:10:28;3.90;99.90
2565;DHT22;1292;48.020;7.822;2023-02-28T10:12:58;4.00;99.90
2565;DHT22;1292;48.020;7.822;2023-02-28T10:15:30;4.00;99.90
2565;DHT22;1292;48.020;7.822;2023-02-28T10:18:00;3.90;99.90
2565;DHT22;1292;48.020;7.822;2023-02-28T10:20:28;4.00;99.90
2565;DHT22;1292;48.020;7.822;2023-02-28T10:23:00;4.00;99.90
2565;DHT22;1292;48.020;7.822;2023-02-28T10:25:35;3.90;99.90
2565;DHT22;1292;48.020;7.822;2023-02-28T10:28:09;3.90;99.90
2565;DHT22;1292;48.020;7.822;2023-02-28T10:30:39;3.80;99.90
2565;DHT22;1292;48.020;7.822;2023-02-28T10:33:21;3.80;99.90
2565;DHT22;1292;48.020;7.822;2023-02-28T10:35:49;3.80;99.90
2565;DHT22;1292;48.020;7.822;2023-02-28T10:38:18;3.90;99.90
2565;DHT22;1292;48.020;7.822;2023-02-28T10:40:47;3.90;99.90
2565;DHT22;1292;48.020;7.822;2023-02-28T10:43:22;4.00;99.90
2565;DHT22;1292;48.020;7.822;2023-02-28T10:45:56;3.90;99.90
2565;DHT22;1292;48.020;7.822;2023-02-28T10:48:34;4.10;99.90
2565;DHT22;1292;48.020;7.822;2023-02-28T10:51:04;4.00;99.90
2565;DHT22;1292;48.020;7.822;2023-02-28T10:53:36;4.00;99.90
2565;DHT22;1292;48.020;7.822;2023-02-28T10:56:12;4.10;99.90
2565;DHT22;1292;48.020;7.822;2023-02-28T10:58:51;4.10;99.90
2565;DHT22;1292;48.020;7.822;2023-02-28T11:01:20;4.00;99.90
2565;DHT22;1292;48.020;7.822;2023-02-28T11:03:48;3.90;99.90
2565;DHT22;1292;48.020;7.822;2023-02-28T11:06:18;4.10;99.90
2565;DHT22;1292;48.020;7.822;2023-02-28T11:08:48;3.90;99.90
2565;DHT22;1292;48.020;7.822;2023-02-28T11:11:17;3.90;99.90
2565;DHT22;1292;48.020;7.822;2023-02-28T11:13:46;3.80;99.90
2565;DHT22;1292;48.020;7.822;2023-02-28T11:16:16;3.80;99.90
2565;DHT22;1292;48.020;7.822;2023-02-28T11:18:48;4.00;99.90
2565;DHT22;1292;48.020;7.822;2023-02-28T11:21:18;3.90;99.90
2565;DHT22;1292;48.020;7.822;2023-02-28T11:23:47;4.10;99.90
2565;DHT22;1292;48.020;7.822;2023-02-28T11:26:35;4.20;99.90
2565;DHT22;1292;48.020;7.822;2023-02-28T11:29:11;4.40;99.90
2565;DHT22;1292;48.020;7.822;2023-02-28T11:31:37;4.50;99.90
2565;DHT22;1292;48.020;7.822;2023-02-28T11:34:23;4.40;99.90
2565;DHT22;1292;48.020;7.822;2023-02-28T11:36:51;4.40;99.90
2565;DHT22;1292;48.020;7.822;2023-02-28T11:39:20;4.60;99.90
2565;DHT22;1292;48.020;7.822;2023-02-28T11:42:02;4.60;99.90
2565;DHT22;1292;48.020;7.822;2023-02-28T11:46:59;4.70;99.90
2565;DHT22;1292;48.020;7.822;2023-02-28T11:49:32;4.70;99.90
2565;DHT22;1292;48.020;7.822;2023-02-28T11:52:08;4.70;99.90
2565;DHT22;1292;48.020;7.822;2023-02-28T11:54:53;4.70;99.90
2565;DHT22;1292;48.020;7.822;2023-02-28T11:57:32;4.80;99.90
2565;DHT22;1292;48.020;7.822;2023-02-28T12:00:06;4.60;99.90
2565;DHT22;1292;48.020;7.822;2023-02-28T12:02:49;4.60;99.90
2565;DHT22;1292;48.020;7.822;2023-02-28T12:05:26;4.80;99.90
2565;DHT22;1292;48.020;7.822;2023-02-28T12:08:01;4.80;99.90
2565;DHT22;1292;48.020;7.822;2023-02-28T12:10:35;4.70;99.90
2565;DHT22;1292;48.020;7.822;2023-02-28T12:13:16;4.50;99.90
2565;DHT22;1292;48.020;7.822;2023-02-28T12:16:20;4.30;99.90
2565;DHT22;1292;48.020;7.822;2023-02-28T12:19:04;4.20;99.90
2565;DHT22;1292;48.020;7.822;2023-02-28T12:21:45;4.10;99.90
2565;DHT22;1292;48.020;7.822;2023-02-28T12:24:32;4.10;99.90
2565;DHT22;1292;48.020;7.822;2023-02-28T12:27:07;4.20;99.90
2565;DHT22;1292;48.020;7.822;2023-02-28T12:29:40;4.20;99.90
2565;DHT22;1292;48.020;7.822;2023-02-28T12:32:13;4.30;99.90
2565;DHT22;1292;48.020;7.822;2023-02-28T12:34:46;4.40;99.90
2565;DHT22;1292;48.020;7.822;2023-02-28T12:37:17;4.50;99.90
2565;DHT22;1292;48.020;7.822;2023-02-28T12:39:48;4.50;99.90
2565;DHT22;1292;48.020;7.822;2023-02-28T12:42:22;4.50;99.90
2565;DHT22;1292;48.020;7.822;2023-02-28T12:44:53;4.50;99.90
2565;DHT22;1292;48.020;7.822;2023-02-28T12:47:21;4.50;99.90
2565;DHT22;1292;48.020;7.822;2023-02-28T12:49:51;4.60;99.90
2565;DHT22;1292;48.020;7.822;2023-02-28T12:52:24;4.50;99.90
2565;DHT22;1292;48.020;7.822;2023-02-28T12:54:55;4.70;99.90
2565;DHT22;1292;48.020;7.822;2023-02-28T12:57:27;4.60;99.90
2565;DHT22;1292;48.020;7.822;2023-02-28T13:00:04;4.60;99.90
2565;DHT22;1292;48.020;7.822;2023-02-28T13:03:04;4.60;99.90
2565;DHT22;1292;48.020;7.822;2023-02-28T13:06:17;4.60;99.90
2565;DHT22;1292;48.020;7.822;2023-02-28T13:09:10;4.70;99.90
2565;DHT22;1292;48.020;7.822;2023-02-28T13:11:41;4.80;99.90
2565;DHT22;1292;48.020;7.822;2023-02-28T13:14:26;4.80;99.90
2565;DHT22;1292;48.020;7.822;2023-02-28T13:17:10;4.70;99.90
2565;DHT22;1292;48.020;7.822;2023-02-28T13:19:40;4.90;99.90
2565;DHT22;1292;48.020;7.822;2023-02-28T13:22:18;5.00;99.90
2565;DHT22;1292;48.020;7.822;2023-02-28T13:24:48;5.00;99.90
2565;DHT22;1292;48.020;7.822;2023-02-28T13:27:37;5.00;99.90
2565;DHT22;1292;48.020;7.822;2023-02-28T13:33:28;5.20;99.90
2565;DHT22;1292;48.020;7.822;2023-02-28T13:36:08;5.30;99.90
2565;DHT22;1292;48.020;7.822;2023-02-28T13:38:38;5.30;99.90
2565;DHT22;1292;48.020;7.822;2023-02-28T13:44:22;5.30;99.90
2565;DHT22;1292;48.020;7.822;2023-02-28T13:47:20;5.20;99.90
2565;DHT22;1292;48.020;7.822;2023-02-28T13:49:51;5.20;99.90
2565;DHT22;1292;48.020;7.822;2023-02-28T13:52:21;5.10;99.90
2565;DHT22;1292;48.020;7.822;2023-02-28T13:55:15;5.20;99.90
2565;DHT22;1292;48.020;7.822;2023-02-28T13:58:01;5.20;99.90
2565;DHT22;1292;48.020;7.822;2023-02-28T14:00:41;5.30;99.90
2565;DHT22;1292;48.020;7.822;2023-02-28T14:03:22;5.10;99.90
2565;DHT22;1292;48.020;7.822;2023-02-28T14:06:15;5.20;99.90
2565;DHT22;1292;48.020;7.822;2023-02-28T14:08:50;5.20;99.90
2565;DHT22;1292;48.020;7.822;2023-02-28T14:11:28;5.10;99.90
2565;DHT22;1292;48.020;7.822;2023-02-28T14:13:55;5.00;99.90
2565;DHT22;1292;48.020;7.822;2023-02-28T14:16:23;5.00;99.90
2565;DHT22;1292;48.020;7.822;2023-02-28T14:18:56;5.10;99.90
2565;DHT22;1292;48.020;7.822;2023-02-28T14:21:28;5.10;99.90
2565;DHT22;1292;48.020;7.822;2023-02-28T14:24:27;5.30;99.90
2565;DHT22;1292;48.020;7.822;2023-02-28T14:27:24;5.40;99.90
2565;DHT22;1292;48.020;7.822;2023-02-28T14:33:04;5.30;99.90
2565;DHT22;1292;48.020;7.822;2023-02-28T14:35:55;5.20;99.90
2565;DHT22;1292;48.020;7.822;2023-02-28T14:38:28;5.20;99.90
2565;DHT22;1292;48.020;7.822;2023-02-28T14:40:58;5.20;99.90
2565;DHT22;1292;48.020;7.822;2023-02-28T14:43:28;5.20;99.90
2565;DHT22;1292;48.020;7.822;2023-02-28T14:45:57;5.10;99.90
2565;DHT22;1292;48.020;7.822;2023-02-28T14:48:25;5.10;99.90
2565;DHT22;1292;48.020;7.822;2023-02-28T14:50:53;5.00;99.90
2565;DHT22;1292;48.020;7.822;2023-02-28T14:53:23;5.00;99.90
2565;DHT22;1292;48.020;7.822;2023-02-28T14:55:53;4.90;99.90
2565;DHT22;1292;48.020;7.822;2023-02-28T14:58:23;4.80;99.90
2565;DHT22;1292;48.020;7.822;2023-02-28T15:00:52;4.70;99.90
2565;DHT22;1292;48.020;7.822;2023-02-28T15:03:21;4.70;99.90
2565;DHT22;1292;48.020;7.822;2023-02-28T15:05:54;4.60;99.90
2565;DHT22;1292;48.020;7.822;2023-02-28T15:08:21;4.60;99.90
2565;DHT22;1292;48.020;7.822;2023-02-28T15:10:55;4.60;99.90
2565;DHT22;1292;48.020;7.822;2023-02-28T15:13:23;4.60;99.90
2565;DHT22;1292;48.020;7.822;2023-02-28T15:15:56;4.70;99.90
2565;DHT22;1292;48.020;7.822;2023-02-28T15:18:29;4.70;99.90
2565;DHT22;1292;48.020;7.822;2023-02-28T15:21:00;4.60;99.90
2565;DHT22;1292;48.020;7.822;2023-02-28T15:23:29;4.60;99.90
2565;DHT22;1292;48.020;7.822;2023-02-28T15:25:58;4.60;99.90
2565;DHT22;1292;48.020;7.822;2023-02-28T15:28:26;4.60;99.90
2565;DHT22;1292;48.020;7.822;2023-02-28T15:30:56;4.70;99.90
2565;DHT22;1292;48.020;7.822;2023-02-28T15:33:24;4.80;99.90
2565;DHT22;1292;48.020;7.822;2023-02-28T15:36:02;4.80;99.90
2565;DHT22;1292;48.020;7.822;2023-02-28T15:38:29;4.90;99.90
2565;DHT22;1292;48.020;7.822;2023-02-28T15:40:59;4.80;99.90
2565;DHT22;1292;48.020;7.822;2023-02-28T15:43:27;4.60;99.90
2565;DHT22;1292;48.020;7.822;2023-02-28T15:45:57;4.60;99.90
2565;DHT22;1292;48.020;7.822;2023-02-28T15:48:27;4.60;99.90
2565;DHT22;1292;48.020;7.822;2023-02-28T15:50:57;4.60;99.90
2565;DHT22;1292;48.020;7.822;2023-02-28T15:53:31;4.50;99.90
2565;DHT22;1292;48.020;7.822;2023-02-28T15:56:02;4.40;99.90
2565;DHT22;1292;48.020;7.822;2023-02-28T15:58:29;4.40;99.90
2565;DHT22;1292;48.020;7.822;2023-02-28T16:01:08;4.40;99.90
2565;DHT22;1292;48.020;7.822;2023-02-28T16:03:45;4.40;99.90
2565;DHT22;1292;48.020;7.822;2023-02-28T16:06:35;4.30;99.90
2565;DHT22;1292;48.020;7.822;2023-02-28T16:09:03;4.30;99.90
2565;DHT22;1292;48.020;7.822;2023-02-28T16:11:36;4.40;99.90
2565;DHT22;1292;48.020;7.822;2023-02-28T16:14:04;4.50;99.90
2565;DHT22;1292;48.020;7.822;2023-02-28T16:16:32;4.40;99.90
2565;DHT22;1292;48.020;7.822;2023-02-28T16:18:59;4.40;99.90
2565;DHT22;1292;48.020;7.822;2023-02-28T16:21:26;4.40;99.90
2565;DHT22;1292;48.020;7.822;2023-02-28T16:23:53;4.40;99.90
2565;DHT22;1292;48.020;7.822;2023-02-28T16:26:23;4.50;99.90
2565;DHT22;1292;48.020;7.822;2023-02-28T16:28:52;4.50;99.90
2565;DHT22;1292;48.020;7.822;2023-02-28T16:31:19;4.60;99.90
2565;DHT22;1292;48.020;7.822;2023-02-28T16:33:46;4.50;99.90
2565;DHT22;1292;48.020;7.822;2023-02-28T16:36:15;4.60;99.90
2565;DHT22;1292;48.020;7.822;2023-02-28T16:38:42;4.50;99.90
2565;DHT22;1292;48.020;7.822;2023-02-28T16:41:13;4.50;99.90
2565;DHT22;1292;48.020;7.822;2023-02-28T16:43:44;4.50;99.90
2565;DHT22;1292;48.020;7.822;2023-02-28T16:46:13;4.40;99.90
2565;DHT22;1292;48.020;7.822;2023-02-28T16:48:42;4.30;99.90
2565;DHT22;1292;48.020;7.822;2023-02-28T16:51:12;4.30;99.90
2565;DHT22;1292;48.020;7.822;2023-02-28T16:53:39;4.30;99.90
2565;DHT22;1292;48.020;7.822;2023-02-28T16:56:08;4.30;99.90
2565;DHT22;1292;48.020;7.822;2023-02-28T16:58:38;4.30;99.90
2565;DHT22;1292;48.020;7.822;2023-02-28T17:01:05;4.20;99.90
2565;DHT22;1292;48.020;7.822;2023-02-28T17:03:33;4.20;99.90
2565;DHT22;1292;48.020;7.822;2023-02-28T17:06:02;4.20;99.90
2565;DHT22;1292;48.020;7.822;2023-02-28T17:08:29;4.20;99.90
2565;DHT22;1292;48.020;7.822;2023-02-28T17:10:57;4.10;99.90
2565;DHT22;1292;48.020;7.822;2023-02-28T17:13:24;4.10;99.90
2565;DHT22;1292;48.020;7.822;2023-02-28T17:15:51;4.10;99.90
2565;DHT22;1292;48.020;7.822;2023-02-28T17:18:18;4.00;99.90
2565;DHT22;1292;48.020;7.822;2023-02-28T17:20:49;4.00;99.90
2565;DHT22;1292;48.020;7.822;2023-02-28T17:23:15;4.00;99.90
2565;DHT22;1292;48.020;7.822;2023-02-28T17:25:42;3.90;99.90
2565;DHT22;1292;48.020;7.822;2023-02-28T17:28:18;3.90;99.90
2565;DHT22;1292;48.020;7.822;2023-02-28T17:30:45;3.90;99.90
2565;DHT22;1292;48.020;7.822;2023-02-28T17:33:14;3.80;99.90
2565;DHT22;1292;48.020;7.822;2023-02-28T17:35:40;3.80;99.90
2565;DHT22;1292;48.020;7.822;2023-02-28T17:38:15;3.80;99.90
2565;DHT22;1292;48.020;7.822;2023-02-28T17:40:42;3.70;99.90
2565;DHT22;1292;48.020;7.822;2023-02-28T17:43:09;3.60;99.90
2565;DHT22;1292;48.020;7.822;2023-02-28T17:45:36;3.50;99.90
2565;DHT22;1292;48.020;7.822;2023-02-28T17:48:04;3.40;99.90
2565;DHT22;1292;48.020;7.822;2023-02-28T17:50:32;3.30;99.90
2565;DHT22;1292;48.020;7.822;2023-02-28T17:52:58;3.40;99.90
2565;DHT22;1292;48.020;7.822;2023-02-28T17:55:27;3.20;99.90
2565;DHT22;1292;48.020;7.822;2023-02-28T17:57:53;3.20;99.90
2565;DHT22;1292;48.020;7.822;2023-02-28T18:00:21;3.30;99.90
2565;DHT22;1292;48.020;7.822;2023-02-28T18:02:49;3.30;99.90
2565;DHT22;1292;48.020;7.822;2023-02-28T18:05:17;3.30;99.90
2565;DHT22;1292;48.020;7.822;2023-02-28T18:07:44;3.20;99.90
2565;DHT22;1292;48.020;7.822;2023-02-28T18:10:14;3.20;99.90
2565;DHT22;1292;48.020;7.822;2023-02-28T18:12:46;3.20;99.90
2565;DHT22;1292;48.020;7.822;2023-02-28T18:15:13;3.10;99.90
2565;DHT22;1292;48.020;7.822;2023-02-28T18:17:40;3.00;99.90
2565;DHT22;1292;48.020;7.822;2023-02-28T18:20:08;3.00;99.90
2565;DHT22;1292;48.020;7.822;2023-02-28T18:22:36;3.00;99.90
2565;DHT22;1292;48.020;7.822;2023-02-28T18:25:03;2.90;99.90
2565;DHT22;1292;48.020;7.822;2023-02-28T18:27:30;2.90;99.90
2565;DHT22;1292;48.020;7.822;2023-02-28T18:29:58;2.90;99.90
2565;DHT22;1292;48.020;7.822;2023-02-28T18:32:25;2.80;99.90
2565;DHT22;1292;48.020;7.822;2023-02-28T18:34:52;2.80;99.90
2565;DHT22;1292;48.020;7.822;2023-02-28T18:37:19;2.70;99.90
2565;DHT22;1292;48.020;7.822;2023-02-28T18:39:46;2.70;99.90
2565;DHT22;1292;48.020;7.822;2023-02-28T18:42:13;2.70;99.90
2565;DHT22;1292;48.020;7.822;2023-02-28T18:44:40;2.60;99.90
2565;DHT22;1292;48.020;7.822;2023-02-28T18:47:08;2.40;99.90
2565;DHT22;1292;48.020;7.822;2023-02-28T18:49:36;2.30;99.90
2565;DHT22;1292;48.020;7.822;2023-02-28T18:52:03;2.30;99.90
2565;DHT22;1292;48.020;7.822;2023-02-28T18:54:30;2.30;99.90
2565;DHT22;1292;48.020;7.822;2023-02-28T18:56:56;2.30;99.90
2565;DHT22;1292;48.020;7.822;2023-02-28T18:59:24;2.30;99.90
2565;DHT22;1292;48.020;7.822;2023-02-28T19:01:51;2.20;99.90
2565;DHT22;1292;48.020;7.822;2023-02-28T19:04:20;2.20;99.90
2565;DHT22;1292;48.020;7.822;2023-02-28T19:06:46;2.10;99.90
2565;DHT22;1292;48.020;7.822;2023-02-28T19:09:14;2.10;99.90
2565;DHT22;1292;48.020;7.822;2023-02-28T19:11:41;1.70;99.90
2565;DHT22;1292;48.020;7.822;2023-02-28T19:14:07;1.60;99.90
2565;DHT22;1292;48.020;7.822;2023-02-28T19:16:35;1.70;99.90
2565;DHT22;1292;48.020;7.822;2023-02-28T19:19:01;1.60;99.90
2565;DHT22;1292;48.020;7.822;2023-02-28T19:21:30;1.50;99.90
2565;DHT22;1292;48.020;7.822;2023-02-28T19:23:57;1.50;99.90
2565;DHT22;1292;48.020;7.822;2023-02-28T19:26:24;1.40;99.90
2565;DHT22;1292;48.020;7.822;2023-02-28T19:28:51;1.40;99.90
2565;DHT22;1292;48.020;7.822;2023-02-28T19:31:20;1.20;99.90
2565;DHT22;1292;48.020;7.822;2023-02-28T19:33:47;1.20;99.90
2565;DHT22;1292;48.020;7.822;2023-02-28T19:36:17;1.30;99.90
2565;DHT22;1292;48.020;7.822;2023-02-28T19:38:46;1.30;99.90
2565;DHT22;1292;48.020;7.822;2023-02-28T19:41:14;1.30;99.90
2565;DHT22;1292;48.020;7.822;2023-02-28T19:43:42;1.20;99.90
2565;DHT22;1292;48.020;7.822;2023-02-28T19:46:10;1.30;99.90
2565;DHT22;1292;48.020;7.822;2023-02-28T19:48:37;1.20;99.90
2565;DHT22;1292;48.020;7.822;2023-02-28T19:51:06;1.10;99.90
2565;DHT22;1292;48.020;7.822;2023-02-28T19:53:35;1.10;99.90
2565;DHT22;1292;48.020;7.822;2023-02-28T19:56:03;0.90;99.90
2565;DHT22;1292;48.020;7.822;2023-02-28T19:58:31;1.00;99.90
2565;DHT22;1292;48.020;7.822;2023-02-28T20:01:05;1.00;99.90
2565;DHT22;1292;48.020;7.822;2023-02-28T20:03:32;0.90;99.90
2565;DHT22;1292;48.020;7.822;2023-02-28T20:06:00;0.90;99.90
2565;DHT22;1292;48.020;7.822;2023-02-28T20:08:28;0.90;99.90
2565;DHT22;1292;48.020;7.822;2023-02-28T20:11:00;0.90;99.90
2565;DHT22;1292;48.020;7.822;2023-02-28T20:13:28;0.90;99.90
2565;DHT22;1292;48.020;7.822;2023-02-28T20:15:59;0.90;99.90
2565;DHT22;1292;48.020;7.822;2023-02-28T20:18:26;0.80;99.90
2565;DHT22;1292;48.020;7.822;2023-02-28T20:20:53;0.80;99.90
2565;DHT22;1292;48.020;7.822;2023-02-28T20:23:20;0.70;99.90
2565;DHT22;1292;48.020;7.822;2023-02-28T20:25:47;0.80;99.90
2565;DHT22;1292;48.020;7.822;2023-02-28T20:28:16;0.70;99.90
2565;DHT22;1292;48.020;7.822;2023-02-28T20:30:44;0.70;99.90
2565;DHT22;1292;48.020;7.822;2023-02-28T20:33:13;0.80;99.90
2565;DHT22;1292;48.020;7.822;2023-02-28T20:35:40;0.70;99.90
2565;DHT22;1292;48.020;7.822;2023-02-28T20:38:06;0.60;99.90
2565;DHT22;1292;48.020;7.822;2023-02-28T20:40:33;0.70;99.90
2565;DHT22;1292;48.020;7.822;2023-02-28T20:43:00;0.60;99.90
2565;DHT22;1292;48.020;7.822;2023-02-28T20:45:27;0.50;99.90
2565;DHT22;1292;48.020;7.822;2023-02-28T20:47:55;0.40;99.90
2565;DHT22;1292;48.020;7.822;2023-02-28T20:50:22;0.40;99.90
2565;DHT22;1292;48.020;7.822;2023-02-28T20:52:49;0.40;99.90
2565;DHT22;1292;48.020;7.822;2023-02-28T20:55:15;0.40;99.90
2565;DHT22;1292;48.020;7.822;2023-02-28T20:57:42;0.30;99.90
2565;DHT22;1292;48.020;7.822;2023-02-28T21:00:11;0.40;99.90
2565;DHT22;1292;48.020;7.822;2023-02-28T21:02:40;0.30;99.90
2565;DHT22;1292;48.020;7.822;2023-02-28T21:05:09;0.30;99.90
2565;DHT22;1292;48.020;7.822;2023-02-28T21:07:35;0.30;99.90
2565;DHT22;1292;48.020;7.822;2023-02-28T21:10:03;0.20;99.90
2565;DHT22;1292;48.020;7.822;2023-02-28T21:12:29;0.30;99.90
2565;DHT22;1292;48.020;7.822;2023-02-28T21:14:56;0.30;99.90
2565;DHT22;1292;48.020;7.822;2023-02-28T21:17:23;0.20;99.90
2565;DHT22;1292;48.020;7.822;2023-02-28T21:19:50;0.20;99.90
2565;DHT22;1292;48.020;7.822;2023-02-28T21:22:18;0.20;99.90
2565;DHT22;1292;48.020;7.822;2023-02-28T21:24:45;0.20;99.90
2565;DHT22;1292;48.020;7.822;2023-02-28T21:27:11;0.10;99.90
2565;DHT22;1292;48.020;7.822;2023-02-28T21:29:38;0.10;99.90
2565;DHT22;1292;48.020;7.822;2023-02-28T21:32:05;0.10;99.90
2565;DHT22;1292;48.020;7.822;2023-02-28T21:34:32;0.10;99.90
2565;DHT22;1292;48.020;7.822;2023-02-28T21:36:59;0.10;99.90
2565;DHT22;1292;48.020;7.822;2023-02-28T21:39:28;0.30;99.90
2565;DHT22;1292;48.020;7.822;2023-02-28T21:41:55;0.10;99.90
2565;DHT22;1292;48.020;7.822;2023-02-28T21:44:28;0.10;99.90
2565;DHT22;1292;48.020;7.822;2023-02-28T21:46:55;0.10;99.90
2565;DHT22;1292;48.020;7.822;2023-02-28T21:49:26;0.20;99.90
2565;DHT22;1292;48.020;7.822;2023-02-28T21:51:53;0.10;99.90
2565;DHT22;1292;48.020;7.822;2023-02-28T21:54:20;0.10;99.90
2565;DHT22;1292;48.020;7.822;2023-02-28T21:56:48;0.10;99.90
2565;DHT22;1292;48.020;7.822;2023-02-28T21:59:16;0.10;99.90
